createdAt,value
2022-12-17T00:02:37.014Z,137.90
2022-12-17T00:05:17.041Z,146.32
2022-12-17T00:07:57.255Z,143.70
2022-12-17T00:10:37.335Z,135.10
2022-12-17T00:13:17.562Z,147.02
2022-12-17T00:16:07.704Z,146.10
2022-12-17T00:18:47.933Z,141.88
2022-12-17T00:21:27.969Z,137.98
2022-12-17T00:24:08.168Z,155.48
2022-12-17T00:26:48.291Z,140.52
2022-12-17T00:29:28.552Z,151.13
2022-12-17T00:32:08.711Z,140.40
2022-12-17T00:34:58.843Z,139.88
2022-12-17T00:37:38.922Z,139.73
2022-12-17T00:40:19.158Z,160.07
2022-12-17T00:42:59.287Z,150.93
2022-12-17T00:45:39.536Z,150.23
2022-12-17T00:48:19.816Z,145.75
2022-12-17T00:51:00.369Z,148.90
2022-12-17T00:53:40.043Z,145.40
2022-12-17T00:56:20.249Z,144.07
2022-12-17T00:59:00.191Z,144.10
2022-12-17T01:01:40.752Z,152.65
2022-12-17T01:04:20.554Z,150.30
2022-12-17T01:07:00.783Z,164.50
2022-12-17T01:09:40.890Z,167.75
2022-12-17T01:12:22.119Z,159.85
2022-12-17T01:15:11.208Z,158.63
2022-12-17T01:17:51.462Z,165.13
2022-12-17T01:20:31.580Z,170.98
2022-12-17T01:23:11.758Z,160.30
2022-12-17T01:25:51.891Z,160.52
2022-12-17T01:28:42.137Z,157.00
2022-12-17T01:31:35.310Z,173.23
2022-12-17T01:34:22.523Z,170.50
2022-12-17T01:37:02.564Z,172.65
2022-12-17T01:39:42.780Z,188.95
2022-12-17T01:42:32.840Z,188.82
2022-12-17T01:45:23.084Z,177.43
2022-12-17T01:48:13.184Z,215.77
2022-12-17T01:51:03.938Z,243.38
2022-12-17T01:53:53.533Z,230.80
2022-12-17T01:56:33.844Z,194.25
2022-12-17T01:59:23.854Z,178.63
2022-12-17T02:02:04.182Z,199.52
2022-12-17T02:04:44.232Z,191.05
2022-12-17T02:08:04.478Z,174.07
2022-12-17T02:11:04.612Z,162.93
2022-12-17T02:13:55.583Z,168.93
2022-12-17T02:16:44.949Z,136.10
2022-12-17T02:19:55.122Z,146.35
2022-12-17T02:23:15.301Z,145.75
2022-12-17T02:26:05.615Z,145.50
2022-12-17T02:28:55.600Z,136.20
2022-12-17T02:31:45.913Z,125.90
2022-12-17T02:34:25.944Z,131.52
2022-12-17T02:37:06.168Z,146.90
2022-12-17T02:39:46.270Z,151.43
2022-12-17T02:42:26.613Z,240.80
2022-12-17T02:45:17.017Z,291.75
2022-12-17T02:48:07.999Z,285.95
2022-12-17T02:50:57.043Z,253.45
2022-12-17T02:53:37.948Z,212.32
2022-12-17T02:56:27.391Z,207.98
2022-12-17T02:59:07.594Z,180.50
2022-12-17T03:01:47.810Z,172.68
2022-12-17T03:04:27.895Z,172.50
2022-12-17T03:07:08.022Z,199.05
2022-12-17T03:09:48.226Z,197.57
2022-12-17T03:12:28.295Z,209.40
2022-12-17T03:15:08.547Z,213.95
2022-12-17T03:17:48.624Z,201.65
2022-12-17T03:20:28.895Z,222.13
2022-12-17T03:23:19.001Z,207.38
2022-12-17T03:25:59.181Z,206.63
2022-12-17T03:28:39.306Z,203.52
2022-12-17T03:31:24.002Z,216.50
2022-12-17T03:34:09.643Z,211.07
2022-12-17T03:36:50.121Z,210.60
2022-12-17T03:39:29.987Z,215.40
2022-12-17T03:42:11.031Z,201.32
2022-12-17T03:45:00.306Z,191.02
2022-12-17T03:47:40.584Z,180.48
2022-12-17T03:50:20.649Z,207.80
2022-12-17T03:53:00.831Z,208.63
2022-12-17T03:55:40.956Z,198.73
2022-12-17T03:58:21.647Z,217.70
2022-12-17T04:03:41.539Z,235.37
2022-12-17T04:06:22.402Z,213.18
2022-12-17T04:09:01.737Z,215.18
2022-12-17T04:11:41.891Z,218.43
2022-12-17T04:14:22.098Z,229.23
2022-12-17T04:17:02.188Z,216.73
2022-12-17T04:19:42.426Z,207.95
2022-12-17T04:22:22.582Z,214.40
2022-12-17T04:25:02.822Z,216.40
2022-12-17T04:27:42.870Z,213.05
2022-12-17T04:30:23.033Z,227.55
2022-12-17T04:33:03.160Z,225.43
2022-12-17T04:35:43.489Z,231.15
2022-12-17T04:38:23.515Z,244.27
2022-12-17T04:41:03.710Z,227.60
2022-12-17T04:43:43.846Z,238.95
2022-12-17T04:46:24.073Z,232.18
2022-12-17T04:49:04.225Z,236.05
2022-12-17T04:51:44.371Z,239.00
2022-12-17T04:54:24.484Z,240.70
2022-12-17T04:57:04.794Z,229.55
2022-12-17T04:59:54.794Z,242.90
2022-12-17T05:02:38.299Z,251.07
2022-12-17T05:05:25.131Z,247.55
2022-12-17T05:08:16.030Z,251.95
2022-12-17T05:11:05.343Z,248.82
2022-12-17T05:13:45.448Z,252.70
2022-12-17T05:16:25.520Z,254.40
2022-12-17T05:19:05.681Z,233.50
2022-12-17T05:21:45.822Z,237.27
2022-12-17T05:24:26.299Z,230.32
2022-12-17T05:29:47.168Z,213.23
2022-12-17T05:32:36.641Z,225.93
2022-12-17T05:35:27.115Z,194.73
2022-12-17T05:40:47.189Z,205.32
2022-12-17T05:43:27.259Z,190.02
2022-12-17T05:46:08.232Z,185.23
2022-12-17T05:48:57.485Z,174.13
2022-12-17T05:51:39.103Z,186.80
2022-12-17T05:54:28.272Z,166.63
2022-12-17T05:57:08.061Z,199.75
2022-12-17T05:59:48.279Z,179.52
2022-12-17T06:02:42.474Z,178.98
2022-12-17T06:05:28.558Z,184.90
2022-12-17T06:08:28.810Z,190.38
2022-12-17T06:11:19.283Z,176.27
2022-12-17T06:16:49.249Z,170.00
2022-12-17T06:19:40.095Z,171.55
2022-12-17T06:22:29.802Z,169.25
2022-12-17T06:25:23.987Z,156.45
2022-12-17T06:28:19.853Z,148.20
2022-12-17T06:31:10.027Z,159.00
2022-12-17T06:33:50.047Z,153.15
2022-12-17T06:36:30.352Z,144.20
2022-12-17T06:39:10.383Z,115.72
2022-12-17T06:41:51.418Z,126.45
2022-12-17T06:44:40.729Z,135.15
2022-12-17T06:47:20.937Z,145.15
2022-12-17T06:50:01.739Z,129.18
2022-12-17T06:52:41.295Z,116.78
2022-12-17T06:55:21.379Z,126.83
2022-12-17T06:58:01.540Z,109.07
2022-12-17T07:00:41.730Z,115.05
2022-12-17T07:03:32.486Z,88.78
2022-12-17T07:06:22.019Z,117.47
2022-12-17T07:09:02.225Z,110.72
2022-12-17T07:11:42.343Z,110.47
2022-12-17T07:14:22.521Z,114.03
2022-12-17T07:17:02.745Z,103.70
2022-12-17T07:19:43.490Z,94.70
2022-12-17T07:22:23.292Z,110.47
2022-12-17T07:25:04.324Z,108.15
2022-12-17T07:27:53.424Z,105.85
2022-12-17T07:30:33.671Z,168.50
2022-12-17T07:35:53.926Z,128.02
2022-12-17T07:38:34.007Z,125.20
2022-12-17T07:41:14.267Z,124.63
2022-12-17T07:43:54.518Z,129.75
2022-12-17T07:46:50.531Z,135.18
2022-12-17T07:49:34.814Z,152.15
2022-12-17T07:52:14.981Z,138.82
2022-12-17T07:55:05.453Z,144.35
2022-12-17T07:57:45.568Z,136.55
2022-12-17T08:00:35.332Z,117.32
2022-12-17T08:03:15.817Z,115.88
2022-12-17T08:06:00.668Z,138.88
2022-12-17T08:08:46.603Z,125.28
2022-12-17T08:11:26.047Z,142.40
2022-12-17T08:14:06.243Z,147.48
2022-12-17T08:16:46.433Z,144.48
2022-12-17T08:19:26.570Z,126.43
2022-12-17T08:22:16.687Z,126.53
2022-12-17T08:24:56.941Z,118.30
2022-12-17T08:27:37.030Z,128.20
2022-12-17T08:30:17.195Z,115.38
2022-12-17T08:32:57.380Z,127.32
2022-12-17T08:35:37.611Z,120.07
2022-12-17T08:38:27.637Z,142.05
2022-12-17T08:41:08.015Z,125.75
2022-12-17T08:46:28.980Z,106.80
2022-12-17T08:49:18.300Z,116.00
2022-12-17T08:51:59.319Z,114.40
2022-12-17T08:54:38.636Z,110.50
2022-12-17T08:57:30.838Z,120.10
2022-12-17T09:00:19.041Z,110.93
2022-12-17T09:02:59.927Z,105.97
2022-12-17T09:05:49.291Z,112.28
2022-12-17T09:08:29.531Z,112.95
2022-12-17T09:13:59.998Z,89.80
2022-12-17T09:19:30.844Z,95.38
2022-12-17T09:22:10.331Z,88.28
2022-12-17T09:24:50.520Z,79.68
2022-12-17T09:27:30.673Z,84.15
2022-12-17T09:30:10.988Z,91.05
2022-12-17T09:35:31.266Z,92.75
2022-12-17T09:41:01.581Z,101.25
2022-12-17T09:44:11.635Z,100.32
2022-12-17T09:47:21.942Z,100.22
2022-12-17T09:50:01.982Z,85.80
2022-12-17T09:52:52.260Z,87.13
2022-12-17T09:55:42.324Z,93.13
2022-12-17T09:58:42.603Z,97.80
2022-12-17T10:01:42.929Z,88.68
2022-12-17T10:07:23.059Z,98.65
2022-12-17T10:10:13.279Z,91.25
2022-12-17T10:12:53.406Z,84.18
2022-12-17T10:15:40.038Z,81.18
2022-12-17T10:18:23.770Z,87.18
2022-12-17T10:21:24.250Z,83.35
2022-12-17T10:26:54.435Z,77.00
2022-12-17T10:32:44.614Z,87.88
2022-12-17T10:35:44.925Z,79.78
2022-12-17T10:38:35.029Z,79.43
2022-12-17T10:41:15.099Z,71.55
2022-12-17T10:43:56.283Z,70.35
2022-12-17T10:46:45.557Z,64.88
2022-12-17T10:49:35.821Z,77.95
2022-12-17T10:52:35.836Z,72.72
2022-12-17T10:55:26.762Z,73.15
2022-12-17T10:58:06.262Z,81.13
2022-12-17T11:00:56.329Z,87.68
2022-12-17T11:04:06.536Z,81.22
2022-12-17T11:07:00.730Z,88.38
2022-12-17T11:10:09.460Z,91.18
2022-12-17T11:13:17.169Z,85.97
2022-12-17T11:16:07.294Z,90.30
2022-12-17T11:19:19.532Z,91.38
2022-12-17T11:22:07.558Z,93.22
2022-12-17T11:25:20.951Z,100.70
2022-12-17T11:28:17.972Z,96.05
2022-12-17T11:31:18.154Z,107.10
2022-12-17T11:34:08.257Z,94.75
2022-12-17T11:37:09.213Z,113.05
2022-12-17T11:40:08.677Z,139.35
2022-12-17T11:43:08.918Z,110.22
2022-12-17T11:46:09.096Z,116.82
2022-12-17T11:48:59.337Z,105.60
2022-12-17T11:51:59.426Z,135.60
2022-12-17T11:55:09.554Z,133.05
2022-12-17T11:58:19.774Z,152.18
2022-12-17T12:01:30.083Z,148.50
2022-12-17T12:04:30.071Z,138.95
2022-12-17T12:07:40.280Z,139.10
2022-12-17T12:10:40.518Z,139.80
2022-12-17T12:13:40.667Z,133.35
2022-12-17T12:16:50.969Z,143.20
2022-12-17T12:19:41.615Z,153.13
2022-12-17T12:25:41.387Z,146.50
2022-12-17T12:28:51.556Z,144.32
2022-12-17T12:32:01.866Z,141.98
2022-12-17T12:34:52.120Z,133.18
2022-12-17T12:37:43.385Z,141.48
2022-12-17T12:41:02.259Z,158.57
2022-12-17T12:43:52.688Z,150.27
2022-12-17T12:46:52.615Z,153.15
2022-12-17T12:49:52.854Z,151.52
2022-12-17T12:52:42.944Z,134.02
2022-12-17T12:55:23.212Z,153.73
2022-12-17T12:58:23.351Z,160.68
2022-12-17T13:01:13.745Z,158.73
2022-12-17T13:04:13.749Z,144.25
2022-12-17T13:06:57.281Z,147.05
2022-12-17T13:09:39.287Z,150.10
2022-12-17T13:12:43.981Z,154.95
2022-12-17T13:15:31.669Z,150.93
2022-12-17T13:18:24.189Z,155.27
2022-12-17T13:21:04.755Z,143.82
2022-12-17T13:26:32.173Z,152.68
2022-12-17T13:29:05.940Z,149.18
2022-12-17T13:31:50.050Z,153.50
2022-12-17T13:34:47.913Z,164.10
2022-12-17T13:37:47.569Z,166.45
2022-12-17T13:40:36.566Z,150.30
2022-12-17T13:43:06.479Z,147.95
2022-12-17T13:45:40.762Z,155.35
2022-12-17T13:48:23.491Z,145.95
2022-12-17T13:51:02.575Z,139.43
2022-12-17T13:53:37.491Z,162.82
2022-12-17T13:56:07.543Z,153.98
2022-12-17T13:58:38.359Z,163.38
2022-12-17T14:01:11.433Z,154.00
2022-12-17T14:04:05.176Z,147.32
2022-12-17T14:06:40.137Z,156.88
2022-12-17T14:09:15.981Z,154.50
2022-12-17T14:11:58.739Z,166.50
2022-12-17T14:14:36.593Z,153.27
2022-12-17T14:17:07.296Z,160.68
2022-12-17T14:19:38.816Z,178.25
2022-12-17T14:22:08.913Z,167.00
2022-12-17T14:24:38.922Z,163.65
2022-12-17T14:27:24.413Z,179.05
2022-12-17T14:29:54.335Z,159.02
2022-12-17T14:32:40.722Z,156.77
2022-12-17T14:35:41.703Z,159.32
2022-12-17T14:38:37.612Z,163.77
2022-12-17T14:41:29.529Z,149.43
2022-12-17T14:44:01.953Z,157.13
2022-12-17T14:46:33.839Z,164.77
2022-12-17T14:49:07.464Z,164.07
2022-12-17T14:51:45.370Z,162.55
2022-12-17T14:54:23.668Z,164.43
2022-12-17T14:56:54.802Z,152.20
2022-12-17T14:59:42.778Z,156.63
2022-12-17T15:02:29.855Z,155.65
2022-12-17T15:05:03.924Z,158.93
2022-12-17T15:07:35.194Z,165.98
2022-12-17T15:10:13.269Z,152.05
2022-12-17T15:12:45.462Z,172.15
2022-12-17T15:15:16.880Z,163.23
2022-12-17T15:17:46.773Z,178.63
2022-12-17T15:20:23.877Z,196.65
2022-12-17T15:22:53.732Z,179.45
2022-12-17T15:25:23.557Z,181.68
2022-12-17T15:27:53.884Z,171.50
2022-12-17T15:30:23.925Z,172.18
2022-12-17T15:32:53.757Z,165.35
2022-12-17T15:37:53.590Z,155.40
2022-12-17T15:40:24.365Z,160.45
2022-12-17T15:43:13.365Z,171.90
2022-12-17T15:45:50.192Z,182.93
2022-12-17T15:48:23.192Z,189.75
2022-12-17T15:50:53.029Z,180.43
2022-12-17T15:53:22.828Z,192.57
2022-12-17T15:55:52.749Z,180.18
2022-12-17T15:58:23.003Z,189.68
2022-12-17T16:00:52.791Z,202.55
2022-12-17T16:03:22.796Z,188.15
2022-12-17T16:05:52.714Z,192.93
2022-12-17T16:08:22.621Z,209.15
2022-12-17T16:10:54.974Z,176.95
2022-12-17T16:13:24.753Z,176.77
2022-12-17T16:16:04.221Z,182.43
2022-12-17T16:18:35.177Z,166.20
2022-12-17T16:21:08.583Z,183.88
2022-12-17T16:23:39.031Z,172.90
2022-12-17T16:26:11.731Z,163.30
2022-12-17T16:28:42.158Z,160.32
2022-12-17T16:31:18.151Z,148.43
2022-12-17T16:33:49.764Z,165.55
2022-12-17T16:36:23.291Z,150.23
2022-12-17T16:38:55.695Z,171.95
2022-12-17T16:41:25.785Z,157.23
2022-12-17T16:43:55.584Z,155.50
2022-12-17T16:46:32.802Z,171.15
2022-12-17T16:49:07.987Z,172.63
2022-12-17T16:51:37.948Z,185.43
2022-12-17T16:54:13.316Z,182.70
2022-12-17T16:56:45.510Z,202.80
2022-12-17T16:59:17.252Z,194.30
2022-12-17T17:01:49.429Z,194.63
2022-12-17T17:04:22.107Z,184.10
2022-12-17T17:06:54.749Z,190.85
2022-12-17T17:09:25.974Z,189.15
2022-12-17T17:11:58.847Z,187.57
2022-12-17T17:14:29.439Z,193.10
2022-12-17T17:16:59.423Z,168.93
2022-12-17T17:19:29.357Z,183.30
2022-12-17T17:21:59.527Z,176.77
2022-12-17T17:24:30.722Z,165.43
2022-12-17T17:27:01.620Z,173.55
2022-12-17T17:29:31.874Z,167.65
2022-12-17T17:32:10.507Z,175.10
2022-12-17T17:34:42.417Z,187.27
2022-12-17T17:37:14.620Z,193.30
2022-12-17T17:39:44.704Z,209.30
2022-12-17T17:42:14.471Z,220.80
2022-12-17T17:44:44.245Z,239.00
2022-12-17T17:47:14.442Z,271.65
2022-12-17T17:49:44.429Z,291.33
2022-12-17T17:52:14.416Z,298.15
2022-12-17T17:54:44.293Z,288.15
2022-12-17T17:57:15.074Z,310.13
2022-12-17T17:59:44.825Z,298.27
2022-12-17T18:02:14.903Z,310.83
2022-12-17T18:04:44.863Z,311.67
2022-12-17T18:07:29.795Z,314.45
2022-12-17T18:10:01.319Z,327.70
2022-12-17T18:12:42.044Z,311.73
2022-12-17T18:17:49.425Z,286.70
2022-12-17T18:20:19.922Z,267.77
2022-12-17T18:22:50.033Z,284.48
2022-12-17T18:25:20.042Z,262.63
2022-12-17T18:27:49.927Z,266.90
2022-12-17T18:30:19.810Z,275.10
2022-12-17T18:32:53.463Z,264.70
2022-12-17T18:35:23.257Z,262.90
2022-12-17T18:37:53.128Z,257.42
2022-12-17T18:40:22.895Z,259.52
2022-12-17T18:43:03.929Z,249.47
2022-12-17T18:45:33.846Z,254.07
2022-12-17T18:48:03.640Z,256.67
2022-12-17T18:50:33.607Z,248.93
2022-12-17T18:53:03.387Z,249.38
2022-12-17T18:55:33.115Z,251.55
2022-12-17T18:58:03.371Z,245.33
2022-12-17T19:00:33.222Z,236.98
2022-12-17T19:03:05.952Z,233.48
2022-12-17T19:05:37.030Z,223.23
2022-12-17T19:08:08.399Z,251.45
2022-12-17T19:10:39.270Z,242.20
2022-12-17T19:13:09.208Z,248.30
2022-12-17T19:15:39.204Z,253.73
2022-12-17T19:18:08.933Z,259.67
2022-12-17T19:20:38.778Z,274.00
2022-12-17T19:23:08.547Z,262.85
2022-12-17T19:25:38.339Z,253.23
2022-12-17T19:28:08.202Z,256.73
2022-12-17T19:30:38.893Z,250.02
2022-12-17T19:35:40.421Z,251.85
2022-12-17T19:38:10.213Z,250.85
2022-12-17T19:40:40.026Z,257.10
2022-12-17T19:43:09.862Z,247.63
2022-12-17T19:45:39.680Z,256.05
2022-12-17T19:48:10.402Z,271.83
2022-12-17T19:53:09.473Z,259.00
2022-12-17T19:55:39.384Z,281.95
2022-12-17T19:58:09.153Z,271.40
2022-12-17T20:00:38.912Z,266.55
2022-12-17T20:03:08.833Z,290.00
2022-12-17T20:05:38.655Z,263.33
2022-12-17T20:08:08.762Z,285.87
2022-12-17T20:10:38.560Z,270.58
2022-12-17T20:13:08.419Z,273.33
2022-12-17T20:15:38.221Z,276.92
2022-12-17T20:18:08.186Z,284.63
2022-12-17T20:20:37.905Z,256.48
2022-12-17T20:23:07.707Z,282.40
2022-12-17T20:25:37.646Z,279.33
2022-12-17T20:28:07.501Z,272.13
2022-12-17T20:30:37.325Z,290.10
2022-12-17T20:33:07.044Z,279.77
2022-12-17T20:35:40.841Z,280.90
2022-12-17T20:38:10.851Z,288.10
2022-12-17T20:40:43.227Z,284.85
2022-12-17T20:43:13.216Z,287.38
2022-12-17T20:45:51.969Z,302.30
2022-12-17T20:48:22.359Z,312.08
2022-12-17T20:50:52.259Z,295.25
2022-12-17T20:53:22.155Z,295.23
2022-12-17T20:56:02.704Z,313.15
2022-12-17T20:58:32.557Z,304.67
2022-12-17T21:01:15.344Z,298.75
2022-12-17T21:03:45.641Z,282.45
2022-12-17T21:06:22.886Z,290.95
2022-12-17T21:08:54.565Z,277.30
2022-12-17T21:11:27.612Z,288.77
2022-12-17T21:13:58.023Z,283.55
2022-12-17T21:16:31.544Z,273.27
2022-12-17T21:19:02.696Z,281.55
2022-12-17T21:21:35.589Z,281.77
2022-12-17T21:24:06.280Z,275.45
2022-12-17T21:29:08.765Z,308.52
2022-12-17T21:31:42.621Z,278.27
2022-12-17T21:34:18.734Z,281.92
2022-12-17T21:36:49.322Z,277.73
2022-12-17T21:39:19.816Z,281.08
2022-12-17T21:42:10.624Z,281.30
2022-12-17T21:47:09.820Z,284.75
2022-12-17T21:49:39.710Z,282.77
2022-12-17T21:52:11.001Z,290.85
2022-12-17T21:54:41.250Z,304.60
2022-12-17T21:57:11.026Z,296.42
2022-12-17T21:59:40.779Z,288.63
2022-12-17T22:02:13.044Z,299.77
2022-12-17T22:04:43.025Z,302.40
2022-12-17T22:07:16.373Z,313.40
2022-12-17T22:10:12.593Z,313.95
2022-12-17T22:12:56.418Z,311.23
2022-12-17T22:15:30.999Z,325.00
2022-12-17T22:18:06.232Z,351.73
2022-12-17T22:20:36.133Z,343.45
2022-12-17T22:23:06.967Z,347.05
2022-12-17T22:25:40.094Z,358.92
2022-12-17T22:28:09.970Z,374.65
2022-12-17T22:30:57.459Z,393.45
2022-12-17T22:34:05.674Z,381.67
2022-12-17T22:38:29.873Z,366.50
2022-12-17T22:41:30.030Z,373.35
2022-12-17T22:44:39.224Z,386.85
2022-12-17T22:45:11.925Z,389.63
2022-12-17T22:47:42.364Z,400.05
2022-12-17T22:50:13.266Z,394.60
2022-12-17T22:52:43.698Z,413.52
2022-12-17T22:55:14.061Z,376.52
2022-12-17T22:57:44.358Z,361.70
2022-12-17T23:00:19.406Z,352.13
2022-12-17T23:02:49.390Z,361.63
2022-12-17T23:05:19.295Z,369.60
2022-12-17T23:07:49.229Z,359.15
2022-12-17T23:10:19.700Z,371.98
2022-12-17T23:12:53.753Z,359.10
2022-12-17T23:15:32.063Z,365.45
2022-12-17T23:18:03.469Z,358.67
2022-12-17T23:20:34.909Z,336.35
2022-12-17T23:23:04.888Z,322.98
2022-12-17T23:25:34.750Z,334.23
2022-12-17T23:28:04.566Z,326.20
2022-12-17T23:30:35.235Z,345.85
2022-12-17T23:33:05.311Z,335.20
2022-12-17T23:35:35.235Z,350.10
2022-12-17T23:38:04.965Z,363.92
2022-12-17T23:40:34.776Z,345.10
2022-12-17T23:43:04.622Z,356.60
2022-12-17T23:45:34.420Z,347.65
2022-12-17T23:48:04.318Z,342.13
2022-12-17T23:50:34.262Z,338.38
2022-12-17T23:53:04.375Z,326.52
2022-12-17T23:55:35.201Z,335.75
2022-12-17T23:58:04.903Z,306.33
